N152CD KOMA-KDEN
Flight info
| Callsign | N152CD |
|---|---|
| Flight time | N/A |
| Altitude | 36000 |
| Route | LNK J146 GLD DANDD1 |
| Aircraft | STAR/L-SDFGRWY/S |
Departure
| Time | 2026-04-28 17:47 |
|---|---|
| Airport | Eppley Airfield (KOMA) |
Arrival
| Time | N/A |
|---|---|
| Airport | Denver International Airport (KDEN) |
| Time | Latitude | Longitude | Altitude | Speed | Heading |
|---|---|---|---|---|---|
| 2026-04-28 17:28 | 41.30518 | -95.88599 | 984 ft | 0 kts | 313° |
| 2026-04-28 17:42 | 41.30521 | -95.88604 | 983 ft | 5 kts | 313° |
| 2026-04-28 17:42 | 41.30520 | -95.88647 | 982 ft | 11 kts | 199° |
| 2026-04-28 17:42 | 41.30461 | -95.88679 | 983 ft | 0 kts | 219° |
| 2026-04-28 17:42 | 41.30454 | -95.88686 | 985 ft | 7 kts | 209° |
| 2026-04-28 17:43 | 41.30379 | -95.88722 | 980 ft | 10 kts | 203° |
| 2026-04-28 17:43 | 41.30334 | -95.88787 | 983 ft | 10 kts | 209° |
| 2026-04-28 17:43 | 41.30278 | -95.88752 | 985 ft | 9 kts | 144° |
| 2026-04-28 17:43 | 41.30226 | -95.88702 | 984 ft | 9 kts | 144° |
| 2026-04-28 17:44 | 41.30171 | -95.88650 | 981 ft | 10 kts | 144° |
| 2026-04-28 17:44 | 41.30115 | -95.88597 | 982 ft | 10 kts | 144° |
| 2026-04-28 17:44 | 41.30057 | -95.88542 | 981 ft | 10 kts | 144° |
| 2026-04-28 17:44 | 41.29997 | -95.88485 | 984 ft | 12 kts | 144° |
| 2026-04-28 17:45 | 41.29905 | -95.88397 | 986 ft | 19 kts | 143° |
| 2026-04-28 17:45 | 41.29803 | -95.88301 | 980 ft | 17 kts | 144° |
| 2026-04-28 17:45 | 41.29710 | -95.88212 | 983 ft | 16 kts | 144° |
| 2026-04-28 17:45 | 41.29623 | -95.88130 | 981 ft | 15 kts | 145° |
| 2026-04-28 17:46 | 41.29540 | -95.88117 | 985 ft | 13 kts | 228° |
| 2026-04-28 17:46 | 41.29493 | -95.88214 | 980 ft | 13 kts | 258° |
| 2026-04-28 17:46 | 41.29521 | -95.88304 | 979 ft | 10 kts | 326° |
| 2026-04-28 17:46 | 41.29600 | -95.88377 | 982 ft | 26 kts | 326° |
| 2026-04-28 17:47 | 41.29887 | -95.88649 | 988 ft | 75 kts | 324° |
| 2026-04-28 17:47 | 41.30458 | -95.89197 | 1021 ft | 125 kts | 327° |
| 2026-04-28 17:47 | 41.31197 | -95.89929 | 1581 ft | 135 kts | 326° |
| 2026-04-28 17:47 | 41.31684 | -95.90408 | 2297 ft | 131 kts | 328° |
| 2026-04-28 17:48 | 41.32674 | -95.91481 | 3337 ft | 138 kts | 326° |
| 2026-04-28 17:48 | 41.33389 | -95.92303 | 4258 ft | 136 kts | 320° |
| 2026-04-28 17:48 | 41.33679 | -95.93548 | 5079 ft | 157 kts | 268° |
| 2026-04-28 17:48 | 41.33145 | -95.94821 | 6008 ft | 161 kts | 232° |
| 2026-04-28 17:49 | 41.32366 | -95.95838 | 6983 ft | 153 kts | 227° |
| 2026-04-28 17:49 | 41.31614 | -95.96806 | 7939 ft | 147 kts | 229° |
| 2026-04-28 17:49 | 41.30924 | -95.97761 | 8950 ft | 140 kts | 232° |
| 2026-04-28 17:49 | 41.30297 | -95.98706 | 9989 ft | 133 kts | 235° |
| 2026-04-28 17:50 | 41.29717 | -95.99631 | 10945 ft | 127 kts | 236° |
| 2026-04-28 17:50 | 41.29168 | -96.00524 | 11866 ft | 123 kts | 237° |
| 2026-04-28 17:50 | 41.28651 | -96.01415 | 12766 ft | 120 kts | 241° |
| 2026-04-28 17:50 | 41.28201 | -96.02352 | 13644 ft | 120 kts | 244° |
| 2026-04-28 17:51 | 41.27759 | -96.03296 | 14432 ft | 120 kts | 243° |
| 2026-04-28 17:51 | 41.27303 | -96.04219 | 15196 ft | 119 kts | 242° |
| 2026-04-28 17:51 | 41.26846 | -96.05129 | 15920 ft | 117 kts | 242° |
| 2026-04-28 17:51 | 41.26398 | -96.06030 | 16651 ft | 116 kts | 242° |
| 2026-04-28 17:52 | 41.25960 | -96.06923 | 17390 ft | 115 kts | 242° |
| 2026-04-28 17:52 | 41.25527 | -96.07805 | 18127 ft | 114 kts | 242° |
| 2026-04-28 17:52 | 41.24651 | -96.09575 | 19328 ft | 117 kts | 242° |
| 2026-04-28 17:53 | 41.24201 | -96.10488 | 19919 ft | 119 kts | 241° |
| 2026-04-28 17:53 | 41.23749 | -96.11400 | 20535 ft | 120 kts | 241° |
| 2026-04-28 17:53 | 41.23284 | -96.12338 | 21177 ft | 120 kts | 240° |
| 2026-04-28 17:53 | 41.22823 | -96.13271 | 21831 ft | 121 kts | 240° |
| 2026-04-28 17:54 | 41.22357 | -96.14212 | 22491 ft | 122 kts | 240° |
| 2026-04-28 17:54 | 41.21888 | -96.15161 | 23147 ft | 123 kts | 240° |
| 2026-04-28 17:54 | 41.21420 | -96.16106 | 23785 ft | 125 kts | 239° |
| 2026-04-28 17:54 | 41.20941 | -96.17072 | 24329 ft | 126 kts | 239° |
| 2026-04-28 17:55 | 41.20456 | -96.18049 | 24880 ft | 127 kts | 239° |
| 2026-04-28 17:55 | 41.19967 | -96.19037 | 25425 ft | 129 kts | 239° |
| 2026-04-28 17:55 | 41.19472 | -96.20035 | 25972 ft | 130 kts | 239° |
| 2026-04-28 17:55 | 41.18973 | -96.21043 | 26522 ft | 131 kts | 239° |
| 2026-04-28 17:56 | 41.18466 | -96.22065 | 27066 ft | 133 kts | 239° |
| 2026-04-28 17:56 | 41.17955 | -96.23095 | 27594 ft | 134 kts | 239° |
| 2026-04-28 17:56 | 41.17446 | -96.24114 | 28191 ft | 132 kts | 239° |
| 2026-04-28 17:56 | 41.16942 | -96.25135 | 28737 ft | 133 kts | 239° |
| 2026-04-28 17:57 | 41.16432 | -96.26166 | 29273 ft | 134 kts | 239° |
| 2026-04-28 17:57 | 41.15916 | -96.27202 | 29816 ft | 135 kts | 239° |
| 2026-04-28 17:57 | 41.15393 | -96.28252 | 30337 ft | 137 kts | 239° |
| 2026-04-28 17:57 | 41.14869 | -96.29301 | 30795 ft | 137 kts | 239° |
| 2026-04-28 17:58 | 41.14346 | -96.30354 | 31247 ft | 136 kts | 240° |
| 2026-04-28 17:58 | 41.13824 | -96.31405 | 31681 ft | 136 kts | 240° |
| 2026-04-28 17:58 | 41.13302 | -96.32456 | 32096 ft | 136 kts | 240° |
| 2026-04-28 17:58 | 41.12779 | -96.33506 | 32491 ft | 137 kts | 241° |
| 2026-04-28 17:59 | 41.12255 | -96.34558 | 32881 ft | 137 kts | 241° |
| 2026-04-28 17:59 | 41.11730 | -96.35610 | 33290 ft | 137 kts | 241° |
| 2026-04-28 17:59 | 41.11205 | -96.36664 | 33690 ft | 137 kts | 242° |
| 2026-04-28 17:59 | 41.10680 | -96.37718 | 34076 ft | 137 kts | 242° |
| 2026-04-28 18:00 | 41.10151 | -96.38780 | 34372 ft | 139 kts | 242° |
| 2026-04-28 18:00 | 41.09614 | -96.39858 | 34614 ft | 141 kts | 242° |
| 2026-04-28 18:00 | 41.09065 | -96.40957 | 34845 ft | 144 kts | 242° |
| 2026-04-28 18:00 | 41.08513 | -96.42061 | 35064 ft | 147 kts | 242° |
| 2026-04-28 18:01 | 41.07938 | -96.43212 | 35281 ft | 149 kts | 242° |
| 2026-04-28 18:01 | 41.07369 | -96.44352 | 35483 ft | 151 kts | 242° |
| 2026-04-28 18:01 | 41.07172 | -96.44745 | 35553 ft | 152 kts | 242° |
| 2026-04-28 18:01 | 41.06190 | -96.46709 | 35897 ft | 155 kts | 242° |
| 2026-04-28 18:02 | 41.05585 | -96.47921 | 36029 ft | 160 kts | 242° |
| 2026-04-28 18:02 | 41.04954 | -96.49184 | 36093 ft | 168 kts | 242° |
| 2026-04-28 18:02 | 41.04290 | -96.50510 | 36126 ft | 177 kts | 242° |
| 2026-04-28 18:02 | 41.03592 | -96.51900 | 36140 ft | 185 kts | 242° |
| 2026-04-28 18:03 | 41.02861 | -96.53360 | 36147 ft | 195 kts | 241° |
| 2026-04-28 18:03 | 41.02099 | -96.54878 | 36148 ft | 201 kts | 241° |
| 2026-04-28 18:03 | 41.01312 | -96.56445 | 36152 ft | 207 kts | 241° |
| 2026-04-28 18:03 | 41.00506 | -96.58054 | 36153 ft | 211 kts | 241° |
| 2026-04-28 18:04 | 40.99683 | -96.59691 | 36154 ft | 215 kts | 241° |
| 2026-04-28 18:04 | 40.98849 | -96.61351 | 36154 ft | 218 kts | 241° |
| 2026-04-28 18:04 | 40.98002 | -96.63036 | 36155 ft | 221 kts | 241° |
| 2026-04-28 18:04 | 40.97147 | -96.64737 | 36155 ft | 223 kts | 240° |
| 2026-04-28 18:05 | 40.96285 | -96.66451 | 36155 ft | 225 kts | 240° |
| 2026-04-28 18:05 | 40.95709 | -96.67595 | 36155 ft | 226 kts | 240° |
| 2026-04-28 18:05 | 40.94539 | -96.69918 | 36155 ft | 227 kts | 240° |
| 2026-04-28 18:05 | 40.93660 | -96.71662 | 36156 ft | 228 kts | 240° |
| 2026-04-28 18:06 | 40.92793 | -96.73381 | 36133 ft | 227 kts | 240° |
| 2026-04-28 18:06 | 40.92039 | -96.75225 | 36145 ft | 225 kts | 250° |
| 2026-04-28 18:06 | 40.91547 | -96.77157 | 36150 ft | 225 kts | 252° |
| 2026-04-28 18:06 | 40.91020 | -96.79103 | 36153 ft | 225 kts | 249° |
| 2026-04-28 18:07 | 40.90443 | -96.81025 | 36156 ft | 225 kts | 250° |
| 2026-04-28 18:07 | 40.89907 | -96.82969 | 36155 ft | 225 kts | 250° |
| 2026-04-28 18:07 | 40.89357 | -96.84906 | 36171 ft | 226 kts | 250° |
| 2026-04-28 18:07 | 40.88798 | -96.86847 | 36163 ft | 226 kts | 250° |
| 2026-04-28 18:08 | 40.88249 | -96.88803 | 36161 ft | 227 kts | 251° |
| 2026-04-28 18:08 | 40.87693 | -96.90757 | 36156 ft | 227 kts | 250° |
| 2026-04-28 18:08 | 40.87133 | -96.92716 | 36155 ft | 227 kts | 250° |
| 2026-04-28 18:08 | 40.86578 | -96.94675 | 36158 ft | 228 kts | 250° |
| 2026-04-28 18:09 | 40.86020 | -96.96635 | 36157 ft | 228 kts | 250° |
| 2026-04-28 18:09 | 40.85461 | -96.98593 | 36152 ft | 228 kts | 250° |
| 2026-04-28 18:09 | 40.84902 | -97.00554 | 36152 ft | 228 kts | 250° |
| 2026-04-28 18:09 | 40.84343 | -97.02514 | 36156 ft | 228 kts | 250° |
| 2026-04-28 18:10 | 40.83783 | -97.04473 | 36153 ft | 228 kts | 250° |
| 2026-04-28 18:10 | 40.83224 | -97.06433 | 36153 ft | 228 kts | 250° |
| 2026-04-28 18:10 | 40.82663 | -97.08392 | 36152 ft | 228 kts | 250° |
| 2026-04-28 18:10 | 40.82102 | -97.10352 | 36152 ft | 228 kts | 250° |
| 2026-04-28 18:11 | 40.81549 | -97.12283 | 36153 ft | 228 kts | 250° |
| 2026-04-28 18:11 | 40.80988 | -97.14241 | 36153 ft | 228 kts | 250° |
| 2026-04-28 18:11 | 40.80421 | -97.16219 | 36147 ft | 228 kts | 250° |
| 2026-04-28 18:11 | 40.79867 | -97.18148 | 36146 ft | 228 kts | 250° |
| 2026-04-28 18:12 | 40.79306 | -97.20101 | 36146 ft | 227 kts | 250° |
| 2026-04-28 18:12 | 40.78745 | -97.22052 | 36147 ft | 227 kts | 250° |
| 2026-04-28 18:12 | 40.78184 | -97.24005 | 36147 ft | 227 kts | 250° |
| 2026-04-28 18:12 | 40.77622 | -97.25956 | 36147 ft | 227 kts | 250° |
| 2026-04-28 18:13 | 40.77059 | -97.27909 | 36142 ft | 228 kts | 250° |
| 2026-04-28 18:13 | 40.76498 | -97.29856 | 36142 ft | 227 kts | 250° |
| 2026-04-28 18:13 | 40.75933 | -97.31812 | 36142 ft | 227 kts | 250° |
| 2026-04-28 18:13 | 40.75371 | -97.33759 | 36142 ft | 227 kts | 250° |
| 2026-04-28 18:14 | 40.74808 | -97.35707 | 36143 ft | 227 kts | 250° |
| 2026-04-28 18:14 | 40.74245 | -97.37654 | 36142 ft | 227 kts | 250° |
| 2026-04-28 18:14 | 40.73682 | -97.39599 | 36142 ft | 227 kts | 250° |
| 2026-04-28 18:14 | 40.73119 | -97.41545 | 36142 ft | 227 kts | 250° |
| 2026-04-28 18:15 | 40.72555 | -97.43489 | 36142 ft | 227 kts | 250° |
| 2026-04-28 18:15 | 40.71992 | -97.45430 | 36142 ft | 227 kts | 250° |
| 2026-04-28 18:15 | 40.71428 | -97.47373 | 36142 ft | 227 kts | 250° |
| 2026-04-28 18:15 | 40.70864 | -97.49312 | 36142 ft | 227 kts | 250° |
| 2026-04-28 18:16 | 40.70300 | -97.51254 | 36142 ft | 227 kts | 250° |
| 2026-04-28 18:16 | 40.70189 | -97.51634 | 36145 ft | 227 kts | 250° |
| 2026-04-28 18:16 | 40.69820 | -97.52904 | 36144 ft | 226 kts | 250° |
| 2026-04-28 18:16 | 40.69255 | -97.54842 | 36142 ft | 226 kts | 250° |
| 2026-04-28 18:17 | 40.68692 | -97.56779 | 36142 ft | 226 kts | 250° |
| 2026-04-28 18:17 | 40.68126 | -97.58717 | 36144 ft | 227 kts | 250° |
| 2026-04-28 18:17 | 40.67559 | -97.60656 | 36142 ft | 227 kts | 250° |
| 2026-04-28 18:17 | 40.67003 | -97.62567 | 36139 ft | 227 kts | 250° |
| 2026-04-28 18:18 | 40.66436 | -97.64507 | 36139 ft | 227 kts | 250° |
| 2026-04-28 18:18 | 40.65869 | -97.66443 | 36138 ft | 227 kts | 250° |
| 2026-04-28 18:18 | 40.65302 | -97.68382 | 36125 ft | 227 kts | 250° |
| 2026-04-28 18:18 | 40.64920 | -97.69688 | 36124 ft | 226 kts | 250° |
| 2026-04-28 18:19 | 40.64170 | -97.72246 | 36132 ft | 226 kts | 250° |
| 2026-04-28 18:19 | 40.63605 | -97.74172 | 36135 ft | 225 kts | 250° |
| 2026-04-28 18:19 | 40.63041 | -97.76094 | 36139 ft | 225 kts | 250° |
| 2026-04-28 18:19 | 40.62475 | -97.78020 | 36140 ft | 225 kts | 250° |
| 2026-04-28 18:20 | 40.61909 | -97.79946 | 36140 ft | 225 kts | 250° |
| 2026-04-28 18:20 | 40.61343 | -97.81872 | 36140 ft | 226 kts | 250° |
| 2026-04-28 18:20 | 40.60775 | -97.83799 | 36140 ft | 226 kts | 250° |
| 2026-04-28 18:20 | 40.60209 | -97.85721 | 36140 ft | 226 kts | 250° |
| 2026-04-28 18:21 | 40.59642 | -97.87644 | 36140 ft | 226 kts | 250° |
| 2026-04-28 18:21 | 40.59075 | -97.89567 | 36140 ft | 225 kts | 250° |
| 2026-04-28 18:21 | 40.58507 | -97.91489 | 36140 ft | 225 kts | 250° |
| 2026-04-28 18:21 | 40.57940 | -97.93411 | 36140 ft | 225 kts | 250° |
| 2026-04-28 18:22 | 40.57372 | -97.95330 | 36140 ft | 225 kts | 250° |
| 2026-04-28 18:22 | 40.56804 | -97.97251 | 36147 ft | 225 kts | 250° |
| 2026-04-28 18:22 | 40.56236 | -97.99166 | 36146 ft | 225 kts | 250° |
| 2026-04-28 18:22 | 40.55669 | -98.01084 | 36147 ft | 225 kts | 250° |
| 2026-04-28 18:23 | 40.55103 | -98.02993 | 36149 ft | 224 kts | 250° |
| 2026-04-28 18:23 | 40.54535 | -98.04903 | 36153 ft | 224 kts | 250° |
| 2026-04-28 18:23 | 40.53967 | -98.06818 | 36155 ft | 224 kts | 250° |
| 2026-04-28 18:23 | 40.53401 | -98.08723 | 36157 ft | 224 kts | 250° |
| 2026-04-28 18:24 | 40.52841 | -98.10605 | 36158 ft | 224 kts | 250° |
| 2026-04-28 18:24 | 40.52459 | -98.11890 | 36160 ft | 224 kts | 250° |
| 2026-04-28 18:24 | 40.51708 | -98.14411 | 36162 ft | 224 kts | 250° |
| 2026-04-28 18:24 | 40.51141 | -98.16314 | 36164 ft | 224 kts | 250° |
| 2026-04-28 18:25 | 40.50572 | -98.18220 | 36165 ft | 224 kts | 250° |
| 2026-04-28 18:25 | 40.50005 | -98.20120 | 36167 ft | 224 kts | 250° |
| 2026-04-28 18:25 | 40.49435 | -98.22030 | 36168 ft | 224 kts | 250° |
| 2026-04-28 18:26 | 40.48294 | -98.25846 | 36170 ft | 224 kts | 250° |
| 2026-04-28 18:26 | 40.47723 | -98.27754 | 36171 ft | 224 kts | 250° |
| 2026-04-28 18:26 | 40.47153 | -98.29656 | 36172 ft | 224 kts | 250° |
| 2026-04-28 18:26 | 40.46584 | -98.31555 | 36172 ft | 224 kts | 250° |
| 2026-04-28 18:27 | 40.46013 | -98.33458 | 36173 ft | 224 kts | 250° |
| 2026-04-28 18:27 | 40.45443 | -98.35356 | 36178 ft | 224 kts | 250° |
| 2026-04-28 18:27 | 40.44872 | -98.37259 | 36175 ft | 224 kts | 250° |
| 2026-04-28 18:27 | 40.44300 | -98.39162 | 36174 ft | 224 kts | 250° |
| 2026-04-28 18:28 | 40.43727 | -98.41064 | 36173 ft | 224 kts | 250° |
| 2026-04-28 18:28 | 40.43155 | -98.42966 | 36170 ft | 224 kts | 250° |
| 2026-04-28 18:28 | 40.42582 | -98.44868 | 36140 ft | 224 kts | 250° |
| 2026-04-28 18:28 | 40.42007 | -98.46774 | 36140 ft | 224 kts | 250° |
| 2026-04-28 18:29 | 40.41441 | -98.48653 | 36141 ft | 224 kts | 250° |
| 2026-04-28 18:29 | 40.40867 | -98.50553 | 36141 ft | 224 kts | 250° |
| 2026-04-28 18:29 | 40.40292 | -98.52456 | 36140 ft | 224 kts | 250° |
| 2026-04-28 18:29 | 40.39717 | -98.54357 | 36140 ft | 224 kts | 250° |
| 2026-04-28 18:30 | 40.39143 | -98.56257 | 36138 ft | 224 kts | 250° |
| 2026-04-28 18:30 | 40.38949 | -98.56896 | 36139 ft | 224 kts | 250° |
| 2026-04-28 18:30 | 40.38179 | -98.59438 | 36140 ft | 224 kts | 250° |
| 2026-04-28 18:30 | 40.37605 | -98.61332 | 36140 ft | 224 kts | 250° |
| 2026-04-28 18:31 | 40.37029 | -98.63231 | 36143 ft | 224 kts | 250° |
| 2026-04-28 18:31 | 40.36454 | -98.65126 | 36144 ft | 224 kts | 250° |
| 2026-04-28 18:31 | 40.35876 | -98.67028 | 36143 ft | 224 kts | 250° |
| 2026-04-28 18:31 | 40.35308 | -98.68896 | 36143 ft | 224 kts | 250° |
| 2026-04-28 18:32 | 40.34732 | -98.70790 | 36143 ft | 224 kts | 250° |
| 2026-04-28 18:32 | 40.34154 | -98.72688 | 36146 ft | 224 kts | 250° |
| 2026-04-28 18:32 | 40.33577 | -98.74583 | 36145 ft | 224 kts | 250° |
| 2026-04-28 18:32 | 40.32998 | -98.76483 | 36144 ft | 225 kts | 250° |
| 2026-04-28 18:33 | 40.32418 | -98.78383 | 36143 ft | 225 kts | 250° |
| 2026-04-28 18:33 | 40.31836 | -98.80290 | 36146 ft | 225 kts | 250° |
| 2026-04-28 18:33 | 40.31255 | -98.82192 | 36146 ft | 225 kts | 250° |
| 2026-04-28 18:33 | 40.30674 | -98.84092 | 36146 ft | 225 kts | 250° |
| 2026-04-28 18:34 | 40.30091 | -98.85996 | 36147 ft | 225 kts | 250° |
| 2026-04-28 18:34 | 40.29508 | -98.87901 | 36146 ft | 225 kts | 250° |
| 2026-04-28 18:34 | 40.28926 | -98.89802 | 36146 ft | 225 kts | 250° |
| 2026-04-28 18:34 | 40.28344 | -98.91699 | 36145 ft | 225 kts | 250° |
| 2026-04-28 18:35 | 40.27759 | -98.93606 | 36146 ft | 225 kts | 250° |
| 2026-04-28 18:35 | 40.27176 | -98.95506 | 36146 ft | 225 kts | 250° |
| 2026-04-28 18:35 | 40.26591 | -98.97409 | 36147 ft | 225 kts | 250° |
| 2026-04-28 18:35 | 40.26007 | -98.99308 | 36147 ft | 225 kts | 250° |
| 2026-04-28 18:36 | 40.25423 | -99.01207 | 36147 ft | 225 kts | 250° |
| 2026-04-28 18:36 | 40.24838 | -99.03108 | 36148 ft | 225 kts | 250° |
| 2026-04-28 18:36 | 40.24253 | -99.05006 | 36148 ft | 225 kts | 250° |
| 2026-04-28 18:36 | 40.23668 | -99.06904 | 36148 ft | 225 kts | 250° |
| 2026-04-28 18:37 | 40.23082 | -99.08803 | 36148 ft | 225 kts | 250° |
| 2026-04-28 18:37 | 40.22496 | -99.10704 | 36150 ft | 225 kts | 250° |
| 2026-04-28 18:37 | 40.21908 | -99.12603 | 36150 ft | 225 kts | 250° |
| 2026-04-28 18:37 | 40.21321 | -99.14502 | 36151 ft | 225 kts | 250° |
| 2026-04-28 18:38 | 40.20733 | -99.16406 | 36151 ft | 226 kts | 250° |
| 2026-04-28 18:38 | 40.20143 | -99.18308 | 36151 ft | 226 kts | 250° |
| 2026-04-28 18:38 | 40.19553 | -99.20214 | 36149 ft | 226 kts | 250° |